sensor_id;sensor_type;location;lat;lon;timestamp;P1;durP1;ratioP1;P2;durP2;ratioP2
7432;SDS011;32233;49.500;7.764;2023-03-24T00:00:13;5.33;;;4.63;;
7432;SDS011;32233;49.500;7.764;2023-03-24T00:02:43;5.40;;;4.60;;
7432;SDS011;32233;49.500;7.764;2023-03-24T00:05:19;5.20;;;4.70;;
7432;SDS011;32233;49.500;7.764;2023-03-24T00:07:47;5.63;;;5.13;;
7432;SDS011;32233;49.500;7.764;2023-03-24T00:10:20;5.53;;;5.03;;
7432;SDS011;32233;49.500;7.764;2023-03-24T00:12:59;6.07;;;5.23;;
7432;SDS011;32233;49.500;7.764;2023-03-24T00:15:31;5.30;;;4.80;;
7432;SDS011;32233;49.500;7.764;2023-03-24T00:17:59;6.57;;;5.43;;
7432;SDS011;32233;49.500;7.764;2023-03-24T00:20:26;5.57;;;4.90;;
7432;SDS011;32233;49.500;7.764;2023-03-24T00:22:54;5.67;;;5.17;;
7432;SDS011;32233;49.500;7.764;2023-03-24T00:25:28;6.20;;;5.30;;
7432;SDS011;32233;49.500;7.764;2023-03-24T00:28:01;5.63;;;5.13;;
7432;SDS011;32233;49.500;7.764;2023-03-24T00:30:34;6.20;;;5.20;;
7432;SDS011;32233;49.500;7.764;2023-03-24T00:33:00;6.13;;;5.50;;
7432;SDS011;32233;49.500;7.764;2023-03-24T00:35:30;6.10;;;5.17;;
7432;SDS011;32233;49.500;7.764;2023-03-24T00:37:56;6.27;;;5.67;;
7432;SDS011;32233;49.500;7.764;2023-03-24T00:40:23;9.03;;;6.83;;
7432;SDS011;32233;49.500;7.764;2023-03-24T00:42:53;9.40;;;6.90;;
7432;SDS011;32233;49.500;7.764;2023-03-24T00:45:20;7.70;;;7.00;;
7432;SDS011;32233;49.500;7.764;2023-03-24T00:47:51;7.67;;;6.03;;
7432;SDS011;32233;49.500;7.764;2023-03-24T00:50:20;7.70;;;6.50;;
7432;SDS011;32233;49.500;7.764;2023-03-24T00:52:53;7.53;;;6.70;;
7432;SDS011;32233;49.500;7.764;2023-03-24T00:55:20;7.43;;;6.67;;
7432;SDS011;32233;49.500;7.764;2023-03-24T00:57:48;9.87;;;6.87;;
7432;SDS011;32233;49.500;7.764;2023-03-24T01:00:18;7.17;;;6.47;;
7432;SDS011;32233;49.500;7.764;2023-03-24T01:02:51;6.87;;;6.17;;
7432;SDS011;32233;49.500;7.764;2023-03-24T01:05:20;6.77;;;6.07;;
7432;SDS011;32233;49.500;7.764;2023-03-24T01:07:48;7.83;;;5.90;;
7432;SDS011;32233;49.500;7.764;2023-03-24T01:10:19;6.93;;;5.30;;
7432;SDS011;32233;49.500;7.764;2023-03-24T01:12:46;8.97;;;5.53;;
7432;SDS011;32233;49.500;7.764;2023-03-24T01:15:15;9.40;;;6.00;;
7432;SDS011;32233;49.500;7.764;2023-03-24T01:17:44;6.27;;;5.30;;
7432;SDS011;32233;49.500;7.764;2023-03-24T01:20:12;6.30;;;5.30;;
7432;SDS011;32233;49.500;7.764;2023-03-24T01:22:40;7.87;;;5.77;;
7432;SDS011;32233;49.500;7.764;2023-03-24T01:25:17;5.90;;;5.37;;
7432;SDS011;32233;49.500;7.764;2023-03-24T01:27:47;5.77;;;5.10;;
7432;SDS011;32233;49.500;7.764;2023-03-24T01:30:16;6.40;;;5.07;;
7432;SDS011;32233;49.500;7.764;2023-03-24T01:32:44;7.20;;;5.50;;
7432;SDS011;32233;49.500;7.764;2023-03-24T01:35:11;6.00;;;5.30;;
7432;SDS011;32233;49.500;7.764;2023-03-24T01:37:38;7.43;;;5.80;;
7432;SDS011;32233;49.500;7.764;2023-03-24T01:40:06;7.20;;;5.50;;
7432;SDS011;32233;49.500;7.764;2023-03-24T01:42:37;6.97;;;6.27;;
7432;SDS011;32233;49.500;7.764;2023-03-24T01:48:11;8.17;;;5.87;;
7432;SDS011;32233;49.500;7.764;2023-03-24T01:50:55;8.37;;;6.80;;
7432;SDS011;32233;49.500;7.764;2023-03-24T01:53:25;7.83;;;6.50;;
7432;SDS011;32233;49.500;7.764;2023-03-24T01:55:53;8.03;;;6.20;;
7432;SDS011;32233;49.500;7.764;2023-03-24T01:58:24;8.20;;;6.20;;
7432;SDS011;32233;49.500;7.764;2023-03-24T02:01:07;8.50;;;6.23;;
7432;SDS011;32233;49.500;7.764;2023-03-24T02:03:42;6.70;;;5.80;;
7432;SDS011;32233;49.500;7.764;2023-03-24T02:06:11;6.47;;;5.63;;
7432;SDS011;32233;49.500;7.764;2023-03-24T02:08:43;6.90;;;5.23;;
7432;SDS011;32233;49.500;7.764;2023-03-24T02:11:15;5.40;;;4.90;;
7432;SDS011;32233;49.500;7.764;2023-03-24T02:13:48;8.30;;;5.83;;
7432;SDS011;32233;49.500;7.764;2023-03-24T02:25:01;6.87;;;6.27;;
7432;SDS011;32233;49.500;7.764;2023-03-24T02:28:03;6.80;;;6.07;;
7432;SDS011;32233;49.500;7.764;2023-03-24T02:36:41;7.03;;;6.00;;
7432;SDS011;32233;49.500;7.764;2023-03-24T02:39:45;6.53;;;5.90;;
7432;SDS011;32233;49.500;7.764;2023-03-24T02:48:35;6.87;;;6.20;;
7432;SDS011;32233;49.500;7.764;2023-03-24T02:54:01;7.47;;;6.07;;
7432;SDS011;32233;49.500;7.764;2023-03-24T02:59:47;9.97;;;6.70;;
7432;SDS011;32233;49.500;7.764;2023-03-24T03:02:44;10.97;;;7.03;;
7432;SDS011;32233;49.500;7.764;2023-03-24T03:05:20;9.83;;;7.13;;
7432;SDS011;32233;49.500;7.764;2023-03-24T03:07:53;10.57;;;8.10;;
7432;SDS011;32233;49.500;7.764;2023-03-24T03:10:24;10.57;;;8.30;;
7432;SDS011;32233;49.500;7.764;2023-03-24T03:12:56;10.73;;;8.03;;
7432;SDS011;32233;49.500;7.764;2023-03-24T03:15:28;12.37;;;8.40;;
7432;SDS011;32233;49.500;7.764;2023-03-24T03:18:08;12.40;;;9.37;;
7432;SDS011;32233;49.500;7.764;2023-03-24T03:20:41;10.07;;;8.77;;
7432;SDS011;32233;49.500;7.764;2023-03-24T03:23:16;11.13;;;9.00;;
7432;SDS011;32233;49.500;7.764;2023-03-24T03:25:50;11.77;;;8.73;;
7432;SDS011;32233;49.500;7.764;2023-03-24T03:28:23;11.30;;;8.90;;
7432;SDS011;32233;49.500;7.764;2023-03-24T03:30:56;10.83;;;9.30;;
7432;SDS011;32233;49.500;7.764;2023-03-24T03:33:26;10.03;;;8.30;;
7432;SDS011;32233;49.500;7.764;2023-03-24T03:36:13;11.77;;;9.10;;
7432;SDS011;32233;49.500;7.764;2023-03-24T03:38:59;11.67;;;9.27;;
7432;SDS011;32233;49.500;7.764;2023-03-24T03:41:36;11.87;;;9.47;;
7432;SDS011;32233;49.500;7.764;2023-03-24T03:44:04;12.10;;;9.80;;
7432;SDS011;32233;49.500;7.764;2023-03-24T03:46:35;16.30;;;9.87;;
7432;SDS011;32233;49.500;7.764;2023-03-24T03:49:05;13.33;;;9.93;;
7432;SDS011;32233;49.500;7.764;2023-03-24T03:51:33;12.60;;;10.27;;
7432;SDS011;32233;49.500;7.764;2023-03-24T03:54:07;14.17;;;10.47;;
7432;SDS011;32233;49.500;7.764;2023-03-24T03:56:37;13.80;;;10.50;;
7432;SDS011;32233;49.500;7.764;2023-03-24T03:59:35;12.00;;;9.90;;
7432;SDS011;32233;49.500;7.764;2023-03-24T04:02:20;12.57;;;10.53;;
7432;SDS011;32233;49.500;7.764;2023-03-24T04:08:16;12.37;;;10.20;;
7432;SDS011;32233;49.500;7.764;2023-03-24T04:11:04;14.53;;;10.77;;
7432;SDS011;32233;49.500;7.764;2023-03-24T04:14:30;14.23;;;10.47;;
7432;SDS011;32233;49.500;7.764;2023-03-24T04:16:55;12.67;;;10.20;;
7432;SDS011;32233;49.500;7.764;2023-03-24T04:31:31;12.10;;;9.17;;
7432;SDS011;32233;49.500;7.764;2023-03-24T04:34:07;12.07;;;9.57;;
7432;SDS011;32233;49.500;7.764;2023-03-24T04:36:43;13.80;;;10.03;;
7432;SDS011;32233;49.500;7.764;2023-03-24T04:39:25;14.00;;;9.67;;
7432;SDS011;32233;49.500;7.764;2023-03-24T04:41:58;15.90;;;10.77;;
7432;SDS011;32233;49.500;7.764;2023-03-24T04:44:29;15.67;;;11.20;;
7432;SDS011;32233;49.500;7.764;2023-03-24T04:47:18;15.10;;;10.03;;
7432;SDS011;32233;49.500;7.764;2023-03-24T04:50:03;12.13;;;9.90;;
7432;SDS011;32233;49.500;7.764;2023-03-24T04:52:32;14.63;;;10.43;;
7432;SDS011;32233;49.500;7.764;2023-03-24T04:55:01;14.10;;;9.97;;
7432;SDS011;32233;49.500;7.764;2023-03-24T04:57:37;13.43;;;9.63;;
7432;SDS011;32233;49.500;7.764;2023-03-24T05:00:04;12.30;;;9.27;;
7432;SDS011;32233;49.500;7.764;2023-03-24T05:02:33;13.87;;;10.23;;
7432;SDS011;32233;49.500;7.764;2023-03-24T05:05:08;12.17;;;9.90;;
7432;SDS011;32233;49.500;7.764;2023-03-24T05:07:40;13.23;;;9.77;;
7432;SDS011;32233;49.500;7.764;2023-03-24T05:10:10;13.33;;;9.00;;
7432;SDS011;32233;49.500;7.764;2023-03-24T05:12:45;11.70;;;9.03;;
7432;SDS011;32233;49.500;7.764;2023-03-24T05:15:15;12.67;;;9.50;;
7432;SDS011;32233;49.500;7.764;2023-03-24T05:17:43;10.37;;;8.77;;
7432;SDS011;32233;49.500;7.764;2023-03-24T05:20:10;12.23;;;8.90;;
7432;SDS011;32233;49.500;7.764;2023-03-24T05:22:40;9.70;;;8.47;;
7432;SDS011;32233;49.500;7.764;2023-03-24T05:25:06;9.37;;;8.07;;
7432;SDS011;32233;49.500;7.764;2023-03-24T05:27:33;10.40;;;8.33;;
7432;SDS011;32233;49.500;7.764;2023-03-24T05:30:11;11.77;;;7.77;;
7432;SDS011;32233;49.500;7.764;2023-03-24T05:32:39;9.83;;;7.93;;
7432;SDS011;32233;49.500;7.764;2023-03-24T05:35:06;9.60;;;7.70;;
7432;SDS011;32233;49.500;7.764;2023-03-24T05:37:33;8.33;;;6.87;;
7432;SDS011;32233;49.500;7.764;2023-03-24T05:40:01;9.23;;;7.43;;
7432;SDS011;32233;49.500;7.764;2023-03-24T05:42:43;9.27;;;7.40;;
7432;SDS011;32233;49.500;7.764;2023-03-24T05:45:12;9.63;;;7.27;;
7432;SDS011;32233;49.500;7.764;2023-03-24T05:47:39;8.13;;;7.33;;
7432;SDS011;32233;49.500;7.764;2023-03-24T05:50:06;8.83;;;7.33;;
7432;SDS011;32233;49.500;7.764;2023-03-24T05:52:33;10.00;;;8.07;;
7432;SDS011;32233;49.500;7.764;2023-03-24T05:55:26;10.93;;;8.43;;
7432;SDS011;32233;49.500;7.764;2023-03-24T05:58:00;11.93;;;8.20;;
7432;SDS011;32233;49.500;7.764;2023-03-24T06:00:34;9.70;;;8.10;;
7432;SDS011;32233;49.500;7.764;2023-03-24T06:03:08;9.73;;;8.27;;
7432;SDS011;32233;49.500;7.764;2023-03-24T06:05:55;10.20;;;9.17;;
7432;SDS011;32233;49.500;7.764;2023-03-24T06:08:22;11.03;;;8.23;;
7432;SDS011;32233;49.500;7.764;2023-03-24T06:10:49;14.07;;;8.73;;
7432;SDS011;32233;49.500;7.764;2023-03-24T06:13:19;9.73;;;8.43;;
7432;SDS011;32233;49.500;7.764;2023-03-24T06:15:48;12.53;;;9.37;;
7432;SDS011;32233;49.500;7.764;2023-03-24T06:18:35;10.53;;;8.83;;
7432;SDS011;32233;49.500;7.764;2023-03-24T06:21:11;13.57;;;9.63;;
7432;SDS011;32233;49.500;7.764;2023-03-24T06:23:40;10.90;;;9.37;;
7432;SDS011;32233;49.500;7.764;2023-03-24T06:26:09;9.93;;;8.53;;
7432;SDS011;32233;49.500;7.764;2023-03-24T06:28:47;11.27;;;9.07;;
7432;SDS011;32233;49.500;7.764;2023-03-24T06:31:17;9.90;;;8.40;;
7432;SDS011;32233;49.500;7.764;2023-03-24T06:33:52;11.70;;;8.17;;
7432;SDS011;32233;49.500;7.764;2023-03-24T06:36:19;9.03;;;7.77;;
7432;SDS011;32233;49.500;7.764;2023-03-24T06:38:45;10.33;;;7.90;;
7432;SDS011;32233;49.500;7.764;2023-03-24T06:41:16;11.00;;;8.43;;
7432;SDS011;32233;49.500;7.764;2023-03-24T06:43:43;9.30;;;7.73;;
7432;SDS011;32233;49.500;7.764;2023-03-24T06:46:10;8.23;;;7.27;;
7432;SDS011;32233;49.500;7.764;2023-03-24T06:48:41;8.80;;;7.13;;
7432;SDS011;32233;49.500;7.764;2023-03-24T06:51:07;9.17;;;7.27;;
7432;SDS011;32233;49.500;7.764;2023-03-24T06:53:36;10.00;;;6.67;;
7432;SDS011;32233;49.500;7.764;2023-03-24T06:56:04;9.23;;;7.43;;
7432;SDS011;32233;49.500;7.764;2023-03-24T06:58:37;8.37;;;7.20;;
7432;SDS011;32233;49.500;7.764;2023-03-24T07:01:06;7.87;;;6.73;;
7432;SDS011;32233;49.500;7.764;2023-03-24T07:03:35;7.43;;;6.63;;
7432;SDS011;32233;49.500;7.764;2023-03-24T07:06:15;8.17;;;7.37;;
7432;SDS011;32233;49.500;7.764;2023-03-24T07:08:43;8.10;;;7.30;;
7432;SDS011;32233;49.500;7.764;2023-03-24T07:11:10;9.10;;;7.40;;
7432;SDS011;32233;49.500;7.764;2023-03-24T07:13:45;9.70;;;8.50;;
7432;SDS011;32233;49.500;7.764;2023-03-24T07:16:11;10.20;;;8.03;;
7432;SDS011;32233;49.500;7.764;2023-03-24T07:18:39;10.47;;;7.77;;
7432;SDS011;32233;49.500;7.764;2023-03-24T07:21:06;11.50;;;8.50;;
7432;SDS011;32233;49.500;7.764;2023-03-24T07:23:34;12.10;;;8.57;;
7432;SDS011;32233;49.500;7.764;2023-03-24T07:26:19;9.83;;;8.10;;
7432;SDS011;32233;49.500;7.764;2023-03-24T07:28:45;11.27;;;8.70;;
7432;SDS011;32233;49.500;7.764;2023-03-24T07:31:22;9.00;;;7.77;;
7432;SDS011;32233;49.500;7.764;2023-03-24T07:33:56;9.47;;;8.47;;
7432;SDS011;32233;49.500;7.764;2023-03-24T07:36:27;10.90;;;8.20;;
7432;SDS011;32233;49.500;7.764;2023-03-24T07:38:55;11.33;;;8.47;;
7432;SDS011;32233;49.500;7.764;2023-03-24T07:41:28;8.93;;;7.67;;
7432;SDS011;32233;49.500;7.764;2023-03-24T07:43:59;8.40;;;7.53;;
7432;SDS011;32233;49.500;7.764;2023-03-24T07:46:45;9.37;;;7.43;;
7432;SDS011;32233;49.500;7.764;2023-03-24T07:49:12;7.00;;;6.40;;
7432;SDS011;32233;49.500;7.764;2023-03-24T07:52:03;6.67;;;5.97;;
7432;SDS011;32233;49.500;7.764;2023-03-24T07:54:35;6.70;;;5.97;;
7432;SDS011;32233;49.500;7.764;2023-03-24T07:57:02;6.90;;;6.20;;
7432;SDS011;32233;49.500;7.764;2023-03-24T07:59:29;6.30;;;5.80;;
7432;SDS011;32233;49.500;7.764;2023-03-24T08:02:25;5.77;;;5.27;;
7432;SDS011;32233;49.500;7.764;2023-03-24T08:04:59;6.17;;;5.37;;
7432;SDS011;32233;49.500;7.764;2023-03-24T08:07:43;7.07;;;5.57;;
7432;SDS011;32233;49.500;7.764;2023-03-24T08:10:15;6.17;;;5.57;;
7432;SDS011;32233;49.500;7.764;2023-03-24T08:12:42;6.33;;;5.73;;
7432;SDS011;32233;49.500;7.764;2023-03-24T08:15:08;6.83;;;6.20;;
7432;SDS011;32233;49.500;7.764;2023-03-24T08:17:35;6.30;;;5.33;;
7432;SDS011;32233;49.500;7.764;2023-03-24T08:20:02;6.53;;;5.93;;
7432;SDS011;32233;49.500;7.764;2023-03-24T08:22:33;6.97;;;5.67;;
7432;SDS011;32233;49.500;7.764;2023-03-24T08:25:00;5.87;;;5.33;;
7432;SDS011;32233;49.500;7.764;2023-03-24T08:27:26;5.93;;;5.33;;
7432;SDS011;32233;49.500;7.764;2023-03-24T08:29:52;5.87;;;5.17;;
7432;SDS011;32233;49.500;7.764;2023-03-24T08:32:19;7.13;;;5.77;;
7432;SDS011;32233;49.500;7.764;2023-03-24T08:34:46;5.40;;;4.90;;
7432;SDS011;32233;49.500;7.764;2023-03-24T08:37:12;5.53;;;5.03;;
7432;SDS011;32233;49.500;7.764;2023-03-24T08:39:39;4.67;;;4.30;;
7432;SDS011;32233;49.500;7.764;2023-03-24T08:42:05;5.63;;;5.10;;
7432;SDS011;32233;49.500;7.764;2023-03-24T08:44:32;6.17;;;4.73;;
7432;SDS011;32233;49.500;7.764;2023-03-24T08:47:02;5.97;;;5.20;;
7432;SDS011;32233;49.500;7.764;2023-03-24T08:49:28;4.70;;;4.30;;
7432;SDS011;32233;49.500;7.764;2023-03-24T08:51:55;4.90;;;4.47;;
7432;SDS011;32233;49.500;7.764;2023-03-24T08:54:22;4.27;;;3.90;;
7432;SDS011;32233;49.500;7.764;2023-03-24T08:56:51;4.40;;;3.93;;
7432;SDS011;32233;49.500;7.764;2023-03-24T08:59:17;5.13;;;3.80;;
7432;SDS011;32233;49.500;7.764;2023-03-24T09:01:44;3.80;;;3.50;;
7432;SDS011;32233;49.500;7.764;2023-03-24T09:04:10;3.87;;;3.47;;
7432;SDS011;32233;49.500;7.764;2023-03-24T09:06:37;5.07;;;3.60;;
7432;SDS011;32233;49.500;7.764;2023-03-24T09:09:03;3.77;;;3.40;;
7432;SDS011;32233;49.500;7.764;2023-03-24T09:11:30;3.30;;;3.00;;
7432;SDS011;32233;49.500;7.764;2023-03-24T09:13:57;2.90;;;2.70;;
7432;SDS011;32233;49.500;7.764;2023-03-24T09:16:23;3.00;;;2.80;;
7432;SDS011;32233;49.500;7.764;2023-03-24T09:18:50;3.50;;;2.73;;
7432;SDS011;32233;49.500;7.764;2023-03-24T09:21:16;2.90;;;2.70;;
7432;SDS011;32233;49.500;7.764;2023-03-24T09:23:43;3.27;;;2.97;;
7432;SDS011;32233;49.500;7.764;2023-03-24T09:26:10;2.60;;;2.40;;
7432;SDS011;32233;49.500;7.764;2023-03-24T09:28:36;3.47;;;2.93;;
7432;SDS011;32233;49.500;7.764;2023-03-24T09:31:04;4.13;;;3.83;;
7432;SDS011;32233;49.500;7.764;2023-03-24T09:33:31;3.93;;;3.63;;
7432;SDS011;32233;49.500;7.764;2023-03-24T09:36:00;3.97;;;3.63;;
7432;SDS011;32233;49.500;7.764;2023-03-24T09:38:28;4.13;;;3.77;;
7432;SDS011;32233;49.500;7.764;2023-03-24T09:40:55;4.60;;;4.17;;
7432;SDS011;32233;49.500;7.764;2023-03-24T09:43:30;4.40;;;3.90;;
7432;SDS011;32233;49.500;7.764;2023-03-24T09:46:03;4.70;;;3.70;;
7432;SDS011;32233;49.500;7.764;2023-03-24T09:48:42;3.57;;;3.27;;
7432;SDS011;32233;49.500;7.764;2023-03-24T09:51:19;3.60;;;3.30;;
7432;SDS011;32233;49.500;7.764;2023-03-24T09:56:56;1.80;;;1.70;;
7432;SDS011;32233;49.500;7.764;2023-03-24T09:59:38;1.43;;;0.67;;
7432;SDS011;32233;49.500;7.764;2023-03-24T10:02:10;0.80;;;0.80;;
7432;SDS011;32233;49.500;7.764;2023-03-24T10:04:39;1.00;;;0.70;;
7432;SDS011;32233;49.500;7.764;2023-03-24T10:07:16;0.60;;;0.60;;
7432;SDS011;32233;49.500;7.764;2023-03-24T10:09:52;0.93;;;0.80;;
7432;SDS011;32233;49.500;7.764;2023-03-24T10:12:32;1.60;;;0.80;;
7432;SDS011;32233;49.500;7.764;2023-03-24T10:18:07;1.50;;;1.00;;
7432;SDS011;32233;49.500;7.764;2023-03-24T10:31:14;1.70;;;0.80;;
7432;SDS011;32233;49.500;7.764;2023-03-24T10:33:45;1.80;;;0.67;;
7432;SDS011;32233;49.500;7.764;2023-03-24T10:36:16;0.80;;;0.80;;
7432;SDS011;32233;49.500;7.764;2023-03-24T10:38:44;0.93;;;0.70;;
7432;SDS011;32233;49.500;7.764;2023-03-24T10:41:18;1.70;;;0.80;;
7432;SDS011;32233;49.500;7.764;2023-03-24T10:43:46;1.17;;;0.70;;
7432;SDS011;32233;49.500;7.764;2023-03-24T10:46:16;1.73;;;0.60;;
7432;SDS011;32233;49.500;7.764;2023-03-24T10:48:50;2.27;;;0.63;;
7432;SDS011;32233;49.500;7.764;2023-03-24T10:51:21;2.40;;;0.80;;
7432;SDS011;32233;49.500;7.764;2023-03-24T10:54:08;1.40;;;0.77;;
7432;SDS011;32233;49.500;7.764;2023-03-24T10:56:42;1.43;;;0.80;;
7432;SDS011;32233;49.500;7.764;2023-03-24T10:59:21;1.27;;;0.80;;
7432;SDS011;32233;49.500;7.764;2023-03-24T11:04:36;1.00;;;0.70;;
7432;SDS011;32233;49.500;7.764;2023-03-24T11:07:12;1.07;;;0.70;;
7432;SDS011;32233;49.500;7.764;2023-03-24T11:09:43;1.70;;;0.70;;
7432;SDS011;32233;49.500;7.764;2023-03-24T11:12:21;1.43;;;0.87;;
7432;SDS011;32233;49.500;7.764;2023-03-24T11:14:49;1.63;;;0.80;;
7432;SDS011;32233;49.500;7.764;2023-03-24T11:17:18;0.80;;;0.70;;
7432;SDS011;32233;49.500;7.764;2023-03-24T11:19:51;0.93;;;0.80;;
7432;SDS011;32233;49.500;7.764;2023-03-24T11:22:19;1.20;;;1.00;;
7432;SDS011;32233;49.500;7.764;2023-03-24T11:24:50;1.53;;;1.10;;
7432;SDS011;32233;49.500;7.764;2023-03-24T11:27:20;0.93;;;0.80;;
7432;SDS011;32233;49.500;7.764;2023-03-24T11:29:51;1.43;;;1.10;;
7432;SDS011;32233;49.500;7.764;2023-03-24T11:32:21;1.90;;;1.30;;
7432;SDS011;32233;49.500;7.764;2023-03-24T11:35:00;1.30;;;1.07;;
7432;SDS011;32233;49.500;7.764;2023-03-24T11:37:32;2.67;;;1.50;;
7432;SDS011;32233;49.500;7.764;2023-03-24T11:40:14;2.50;;;1.10;;
7432;SDS011;32233;49.500;7.764;2023-03-24T11:42:44;1.17;;;1.07;;
7432;SDS011;32233;49.500;7.764;2023-03-24T11:47:47;2.77;;;1.30;;
7432;SDS011;32233;49.500;7.764;2023-03-24T11:50:19;3.43;;;1.30;;
7432;SDS011;32233;49.500;7.764;2023-03-24T11:55:56;1.93;;;1.10;;
7432;SDS011;32233;49.500;7.764;2023-03-24T12:09:50;2.47;;;1.80;;
7432;SDS011;32233;49.500;7.764;2023-03-24T12:21:33;3.20;;;2.33;;
7432;SDS011;32233;49.500;7.764;2023-03-24T12:26:32;19.73;;;11.13;;
7432;SDS011;32233;49.500;7.764;2023-03-24T12:39:58;2.23;;;2.10;;
7432;SDS011;32233;49.500;7.764;2023-03-24T12:42:43;2.53;;;1.87;;
7432;SDS011;32233;49.500;7.764;2023-03-24T12:53:32;2.93;;;1.50;;
7432;SDS011;32233;49.500;7.764;2023-03-24T12:56:13;3.57;;;1.40;;
7432;SDS011;32233;49.500;7.764;2023-03-24T13:01:35;3.03;;;1.40;;
7432;SDS011;32233;49.500;7.764;2023-03-24T13:04:07;2.00;;;1.60;;
7432;SDS011;32233;49.500;7.764;2023-03-24T13:06:47;2.93;;;1.80;;
7432;SDS011;32233;49.500;7.764;2023-03-24T13:09:22;5.13;;;1.00;;
7432;SDS011;32233;49.500;7.764;2023-03-24T13:17:37;2.00;;;1.30;;
7432;SDS011;32233;49.500;7.764;2023-03-24T13:20:18;1.60;;;0.90;;
7432;SDS011;32233;49.500;7.764;2023-03-24T13:22:50;3.43;;;1.07;;
7432;SDS011;32233;49.500;7.764;2023-03-24T13:28:03;2.43;;;1.07;;
7432;SDS011;32233;49.500;7.764;2023-03-24T13:30:37;1.17;;;0.73;;
7432;SDS011;32233;49.500;7.764;2023-03-24T13:33:09;2.83;;;1.00;;
7432;SDS011;32233;49.500;7.764;2023-03-24T13:35:56;4.00;;;0.80;;
7432;SDS011;32233;49.500;7.764;2023-03-24T13:41:12;2.20;;;0.80;;
7432;SDS011;32233;49.500;7.764;2023-03-24T13:44:06;4.20;;;1.30;;
7432;SDS011;32233;49.500;7.764;2023-03-24T13:46:41;2.30;;;0.70;;
7432;SDS011;32233;49.500;7.764;2023-03-24T13:49:12;2.87;;;0.87;;
7432;SDS011;32233;49.500;7.764;2023-03-24T13:51:42;3.00;;;0.90;;
7432;SDS011;32233;49.500;7.764;2023-03-24T13:54:18;2.30;;;0.80;;
7432;SDS011;32233;49.500;7.764;2023-03-24T13:56:54;2.80;;;0.80;;
7432;SDS011;32233;49.500;7.764;2023-03-24T14:02:17;3.53;;;0.70;;
7432;SDS011;32233;49.500;7.764;2023-03-24T14:04:48;3.07;;;0.80;;
7432;SDS011;32233;49.500;7.764;2023-03-24T14:15:21;1.50;;;0.70;;
7432;SDS011;32233;49.500;7.764;2023-03-24T14:23:28;3.37;;;0.80;;
7432;SDS011;32233;49.500;7.764;2023-03-24T14:26:00;3.13;;;0.70;;
7432;SDS011;32233;49.500;7.764;2023-03-24T14:28:48;3.10;;;0.73;;
7432;SDS011;32233;49.500;7.764;2023-03-24T14:33:43;3.27;;;1.00;;
7432;SDS011;32233;49.500;7.764;2023-03-24T14:36:34;1.63;;;0.80;;
7432;SDS011;32233;49.500;7.764;2023-03-24T14:41:51;2.87;;;0.90;;
7432;SDS011;32233;49.500;7.764;2023-03-24T14:47:18;6.23;;;1.07;;
7432;SDS011;32233;49.500;7.764;2023-03-24T14:49:47;2.70;;;0.83;;
7432;SDS011;32233;49.500;7.764;2023-03-24T14:55:03;5.63;;;0.90;;
7432;SDS011;32233;49.500;7.764;2023-03-24T14:57:39;6.03;;;1.00;;
7432;SDS011;32233;49.500;7.764;2023-03-24T15:00:09;2.10;;;0.80;;
7432;SDS011;32233;49.500;7.764;2023-03-24T15:07:43;3.67;;;0.80;;
7432;SDS011;32233;49.500;7.764;2023-03-24T15:10:13;3.27;;;0.73;;
7432;SDS011;32233;49.500;7.764;2023-03-24T15:12:44;2.60;;;0.73;;
7432;SDS011;32233;49.500;7.764;2023-03-24T15:15:13;2.73;;;0.87;;
7432;SDS011;32233;49.500;7.764;2023-03-24T15:17:42;4.30;;;0.70;;
7432;SDS011;32233;49.500;7.764;2023-03-24T15:20:26;3.27;;;0.50;;
7432;SDS011;32233;49.500;7.764;2023-03-24T15:22:54;3.10;;;0.90;;
7432;SDS011;32233;49.500;7.764;2023-03-24T15:25:25;3.07;;;0.70;;
7432;SDS011;32233;49.500;7.764;2023-03-24T15:27:53;1.67;;;0.70;;
7432;SDS011;32233;49.500;7.764;2023-03-24T15:30:22;3.63;;;0.70;;
7432;SDS011;32233;49.500;7.764;2023-03-24T15:32:49;2.30;;;0.70;;
7432;SDS011;32233;49.500;7.764;2023-03-24T15:35:18;4.07;;;0.80;;
7432;SDS011;32233;49.500;7.764;2023-03-24T15:37:53;3.37;;;0.80;;
7432;SDS011;32233;49.500;7.764;2023-03-24T15:42:53;4.37;;;0.90;;
7432;SDS011;32233;49.500;7.764;2023-03-24T15:45:25;5.63;;;0.80;;
7432;SDS011;32233;49.500;7.764;2023-03-24T15:47:54;3.83;;;0.87;;
7432;SDS011;32233;49.500;7.764;2023-03-24T15:52:58;2.90;;;0.83;;
7432;SDS011;32233;49.500;7.764;2023-03-24T15:55:28;3.90;;;0.77;;
7432;SDS011;32233;49.500;7.764;2023-03-24T15:57:58;3.70;;;0.87;;
7432;SDS011;32233;49.500;7.764;2023-03-24T16:00:28;3.17;;;0.90;;
7432;SDS011;32233;49.500;7.764;2023-03-24T16:03:01;2.53;;;0.97;;
7432;SDS011;32233;49.500;7.764;2023-03-24T16:05:32;1.80;;;0.87;;
7432;SDS011;32233;49.500;7.764;2023-03-24T16:08:03;4.27;;;0.70;;
7432;SDS011;32233;49.500;7.764;2023-03-24T16:10:39;3.83;;;0.70;;
7432;SDS011;32233;49.500;7.764;2023-03-24T16:13:12;3.13;;;0.80;;
7432;SDS011;32233;49.500;7.764;2023-03-24T16:15:41;5.20;;;0.93;;
7432;SDS011;32233;49.500;7.764;2023-03-24T16:18:32;2.50;;;0.67;;
7432;SDS011;32233;49.500;7.764;2023-03-24T16:21:02;3.77;;;0.90;;
7432;SDS011;32233;49.500;7.764;2023-03-24T16:23:36;4.30;;;0.93;;
7432;SDS011;32233;49.500;7.764;2023-03-24T16:26:03;6.47;;;1.03;;
7432;SDS011;32233;49.500;7.764;2023-03-24T16:28:30;4.10;;;0.90;;
7432;SDS011;32233;49.500;7.764;2023-03-24T16:31:00;4.97;;;0.70;;
7432;SDS011;32233;49.500;7.764;2023-03-24T16:33:28;2.80;;;1.00;;
7432;SDS011;32233;49.500;7.764;2023-03-24T16:35:58;4.57;;;0.93;;
7432;SDS011;32233;49.500;7.764;2023-03-24T16:38:26;1.60;;;0.60;;
7432;SDS011;32233;49.500;7.764;2023-03-24T16:40:53;5.13;;;0.80;;
7432;SDS011;32233;49.500;7.764;2023-03-24T16:43:22;2.80;;;0.90;;
7432;SDS011;32233;49.500;7.764;2023-03-24T16:45:49;3.60;;;0.80;;
7432;SDS011;32233;49.500;7.764;2023-03-24T16:48:16;6.90;;;1.10;;
7432;SDS011;32233;49.500;7.764;2023-03-24T16:50:44;4.33;;;0.70;;
7432;SDS011;32233;49.500;7.764;2023-03-24T16:53:15;1.70;;;0.70;;
7432;SDS011;32233;49.500;7.764;2023-03-24T16:55:43;4.87;;;1.00;;
7432;SDS011;32233;49.500;7.764;2023-03-24T16:58:11;4.10;;;1.00;;
7432;SDS011;32233;49.500;7.764;2023-03-24T17:00:39;2.63;;;1.00;;
7432;SDS011;32233;49.500;7.764;2023-03-24T17:03:08;2.97;;;1.03;;
7432;SDS011;32233;49.500;7.764;2023-03-24T17:05:43;1.70;;;0.70;;
7432;SDS011;32233;49.500;7.764;2023-03-24T17:08:12;2.23;;;0.80;;
7432;SDS011;32233;49.500;7.764;2023-03-24T17:10:39;1.80;;;0.60;;
7432;SDS011;32233;49.500;7.764;2023-03-24T17:13:20;3.07;;;0.73;;
7432;SDS011;32233;49.500;7.764;2023-03-24T17:15:49;3.83;;;0.80;;
7432;SDS011;32233;49.500;7.764;2023-03-24T17:18:17;3.03;;;0.60;;
7432;SDS011;32233;49.500;7.764;2023-03-24T17:20:44;4.70;;;0.90;;
7432;SDS011;32233;49.500;7.764;2023-03-24T17:23:12;3.40;;;0.70;;
7432;SDS011;32233;49.500;7.764;2023-03-24T17:25:42;3.13;;;0.70;;
7432;SDS011;32233;49.500;7.764;2023-03-24T17:28:12;2.67;;;0.70;;
7432;SDS011;32233;49.500;7.764;2023-03-24T17:30:42;2.50;;;0.80;;
7432;SDS011;32233;49.500;7.764;2023-03-24T17:33:12;2.00;;;0.73;;
7432;SDS011;32233;49.500;7.764;2023-03-24T17:35:41;5.23;;;1.00;;
7432;SDS011;32233;49.500;7.764;2023-03-24T17:38:10;2.73;;;1.00;;
7432;SDS011;32233;49.500;7.764;2023-03-24T17:40:39;4.97;;;1.30;;
7432;SDS011;32233;49.500;7.764;2023-03-24T17:43:06;4.60;;;1.00;;
7432;SDS011;32233;49.500;7.764;2023-03-24T17:45:33;4.13;;;0.90;;
7432;SDS011;32233;49.500;7.764;2023-03-24T17:47:59;4.23;;;0.90;;
7432;SDS011;32233;49.500;7.764;2023-03-24T17:50:26;2.93;;;1.00;;
7432;SDS011;32233;49.500;7.764;2023-03-24T17:52:55;4.03;;;0.90;;
7432;SDS011;32233;49.500;7.764;2023-03-24T17:55:21;4.43;;;1.07;;
7432;SDS011;32233;49.500;7.764;2023-03-24T17:57:48;3.10;;;0.87;;
7432;SDS011;32233;49.500;7.764;2023-03-24T18:00:14;2.63;;;1.00;;
7432;SDS011;32233;49.500;7.764;2023-03-24T18:02:41;3.47;;;1.10;;
7432;SDS011;32233;49.500;7.764;2023-03-24T18:05:09;3.53;;;1.23;;
7432;SDS011;32233;49.500;7.764;2023-03-24T18:07:37;5.83;;;1.20;;
7432;SDS011;32233;49.500;7.764;2023-03-24T18:10:05;3.17;;;0.90;;